sensor_id;sensor_type;location;lat;lon;timestamp;P1;durP1;ratioP1;P2;durP2;ratioP2
8480;SDS011;4277;51.354;6.740;2023-09-30T00:02:11;12.70;;;5.03;;
8480;SDS011;4277;51.354;6.740;2023-09-30T00:04:37;12.63;;;5.43;;
8480;SDS011;4277;51.354;6.740;2023-09-30T00:07:03;9.10;;;5.37;;
8480;SDS011;4277;51.354;6.740;2023-09-30T00:09:30;10.77;;;4.90;;
8480;SDS011;4277;51.354;6.740;2023-09-30T00:11:56;8.80;;;4.93;;
8480;SDS011;4277;51.354;6.740;2023-09-30T00:14:22;10.43;;;4.90;;
8480;SDS011;4277;51.354;6.740;2023-09-30T00:16:48;9.13;;;4.97;;
8480;SDS011;4277;51.354;6.740;2023-09-30T00:19:15;10.03;;;4.90;;
8480;SDS011;4277;51.354;6.740;2023-09-30T00:21:41;10.67;;;5.30;;
8480;SDS011;4277;51.354;6.740;2023-09-30T00:24:07;10.50;;;5.10;;
8480;SDS011;4277;51.354;6.740;2023-09-30T00:26:34;11.47;;;5.33;;
8480;SDS011;4277;51.354;6.740;2023-09-30T00:29:00;11.50;;;5.43;;
8480;SDS011;4277;51.354;6.740;2023-09-30T00:31:29;13.40;;;5.40;;
8480;SDS011;4277;51.354;6.740;2023-09-30T00:33:55;12.07;;;5.60;;
8480;SDS011;4277;51.354;6.740;2023-09-30T00:36:21;11.57;;;5.27;;
8480;SDS011;4277;51.354;6.740;2023-09-30T00:38:47;14.27;;;5.90;;
8480;SDS011;4277;51.354;6.740;2023-09-30T00:41:13;11.47;;;5.40;;
8480;SDS011;4277;51.354;6.740;2023-09-30T00:43:39;10.90;;;5.20;;
8480;SDS011;4277;51.354;6.740;2023-09-30T00:48:42;8.23;;;5.00;;
8480;SDS011;4277;51.354;6.740;2023-09-30T00:51:08;10.43;;;5.23;;
8480;SDS011;4277;51.354;6.740;2023-09-30T00:53:34;9.87;;;5.67;;
8480;SDS011;4277;51.354;6.740;2023-09-30T00:56:00;11.43;;;5.50;;
8480;SDS011;4277;51.354;6.740;2023-09-30T00:58:26;9.83;;;5.00;;
8480;SDS011;4277;51.354;6.740;2023-09-30T01:00:54;11.73;;;5.43;;
8480;SDS011;4277;51.354;6.740;2023-09-30T01:03:21;11.90;;;5.17;;
8480;SDS011;4277;51.354;6.740;2023-09-30T01:05:48;9.70;;;5.37;;
8480;SDS011;4277;51.354;6.740;2023-09-30T01:08:14;9.27;;;5.10;;
8480;SDS011;4277;51.354;6.740;2023-09-30T01:10:41;9.10;;;4.90;;
8480;SDS011;4277;51.354;6.740;2023-09-30T01:13:07;12.67;;;5.47;;
8480;SDS011;4277;51.354;6.740;2023-09-30T01:15:33;11.77;;;5.87;;
8480;SDS011;4277;51.354;6.740;2023-09-30T01:17:59;11.93;;;5.93;;
8480;SDS011;4277;51.354;6.740;2023-09-30T01:20:25;11.57;;;5.87;;
8480;SDS011;4277;51.354;6.740;2023-09-30T01:22:52;14.37;;;6.20;;
8480;SDS011;4277;51.354;6.740;2023-09-30T01:25:20;13.00;;;6.10;;
8480;SDS011;4277;51.354;6.740;2023-09-30T01:27:46;11.80;;;5.83;;
8480;SDS011;4277;51.354;6.740;2023-09-30T01:30:12;10.37;;;5.43;;
8480;SDS011;4277;51.354;6.740;2023-09-30T01:32:39;15.70;;;5.90;;
8480;SDS011;4277;51.354;6.740;2023-09-30T01:35:05;11.80;;;5.67;;
8480;SDS011;4277;51.354;6.740;2023-09-30T01:37:31;10.33;;;5.80;;
8480;SDS011;4277;51.354;6.740;2023-09-30T01:39:57;12.43;;;5.93;;
8480;SDS011;4277;51.354;6.740;2023-09-30T01:42:23;15.27;;;5.63;;
8480;SDS011;4277;51.354;6.740;2023-09-30T01:44:49;11.13;;;6.10;;
8480;SDS011;4277;51.354;6.740;2023-09-30T01:47:15;10.53;;;5.50;;
8480;SDS011;4277;51.354;6.740;2023-09-30T01:49:41;7.93;;;4.73;;
8480;SDS011;4277;51.354;6.740;2023-09-30T01:52:07;12.70;;;5.43;;
8480;SDS011;4277;51.354;6.740;2023-09-30T01:54:33;11.20;;;5.60;;
8480;SDS011;4277;51.354;6.740;2023-09-30T01:56:59;10.60;;;5.40;;
8480;SDS011;4277;51.354;6.740;2023-09-30T01:59:25;13.00;;;5.13;;
8480;SDS011;4277;51.354;6.740;2023-09-30T02:01:51;11.03;;;5.63;;
8480;SDS011;4277;51.354;6.740;2023-09-30T02:04:17;10.83;;;5.37;;
8480;SDS011;4277;51.354;6.740;2023-09-30T02:06:43;11.87;;;4.93;;
8480;SDS011;4277;51.354;6.740;2023-09-30T02:09:09;9.27;;;4.93;;
8480;SDS011;4277;51.354;6.740;2023-09-30T02:11:35;9.63;;;5.23;;
8480;SDS011;4277;51.354;6.740;2023-09-30T02:14:02;10.60;;;5.30;;
8480;SDS011;4277;51.354;6.740;2023-09-30T02:16:28;9.30;;;5.50;;
8480;SDS011;4277;51.354;6.740;2023-09-30T02:18:54;10.80;;;5.57;;
8480;SDS011;4277;51.354;6.740;2023-09-30T02:21:21;8.50;;;5.03;;
8480;SDS011;4277;51.354;6.740;2023-09-30T02:23:47;12.50;;;5.60;;
8480;SDS011;4277;51.354;6.740;2023-09-30T02:26:14;9.73;;;5.47;;
8480;SDS011;4277;51.354;6.740;2023-09-30T02:28:40;10.40;;;5.17;;
8480;SDS011;4277;51.354;6.740;2023-09-30T02:31:05;9.17;;;5.27;;
8480;SDS011;4277;51.354;6.740;2023-09-30T02:33:34;11.60;;;5.70;;
8480;SDS011;4277;51.354;6.740;2023-09-30T02:36:01;9.30;;;5.00;;
8480;SDS011;4277;51.354;6.740;2023-09-30T02:38:27;11.20;;;5.43;;
8480;SDS011;4277;51.354;6.740;2023-09-30T02:40:54;8.73;;;5.00;;
8480;SDS011;4277;51.354;6.740;2023-09-30T02:43:20;14.43;;;5.57;;
8480;SDS011;4277;51.354;6.740;2023-09-30T02:45:46;11.87;;;5.10;;
8480;SDS011;4277;51.354;6.740;2023-09-30T02:48:12;8.60;;;4.73;;
8480;SDS011;4277;51.354;6.740;2023-09-30T02:50:38;9.33;;;5.17;;
8480;SDS011;4277;51.354;6.740;2023-09-30T02:53:05;10.77;;;5.30;;
8480;SDS011;4277;51.354;6.740;2023-09-30T02:55:31;9.00;;;5.00;;
8480;SDS011;4277;51.354;6.740;2023-09-30T02:57:57;8.57;;;4.70;;
8480;SDS011;4277;51.354;6.740;2023-09-30T03:00:24;11.93;;;5.30;;
8480;SDS011;4277;51.354;6.740;2023-09-30T03:02:54;9.70;;;4.77;;
8480;SDS011;4277;51.354;6.740;2023-09-30T03:05:21;10.73;;;5.17;;
8480;SDS011;4277;51.354;6.740;2023-09-30T03:07:47;7.77;;;4.50;;
8480;SDS011;4277;51.354;6.740;2023-09-30T03:10:15;8.53;;;4.73;;
8480;SDS011;4277;51.354;6.740;2023-09-30T03:12:55;7.03;;;4.53;;
8480;SDS011;4277;51.354;6.740;2023-09-30T03:15:21;9.03;;;4.77;;
8480;SDS011;4277;51.354;6.740;2023-09-30T03:17:48;10.87;;;4.93;;
8480;SDS011;4277;51.354;6.740;2023-09-30T03:20:14;8.53;;;4.57;;
8480;SDS011;4277;51.354;6.740;2023-09-30T03:22:44;10.23;;;4.80;;
8480;SDS011;4277;51.354;6.740;2023-09-30T03:25:15;9.07;;;4.70;;
8480;SDS011;4277;51.354;6.740;2023-09-30T03:27:42;8.97;;;4.30;;
8480;SDS011;4277;51.354;6.740;2023-09-30T03:30:08;8.43;;;4.30;;
8480;SDS011;4277;51.354;6.740;2023-09-30T03:32:36;9.63;;;4.60;;
8480;SDS011;4277;51.354;6.740;2023-09-30T03:35:06;8.77;;;4.47;;
8480;SDS011;4277;51.354;6.740;2023-09-30T03:37:32;9.50;;;5.10;;
8480;SDS011;4277;51.354;6.740;2023-09-30T03:39:59;11.60;;;4.87;;
8480;SDS011;4277;51.354;6.740;2023-09-30T03:42:36;13.07;;;4.90;;
8480;SDS011;4277;51.354;6.740;2023-09-30T03:45:04;10.13;;;4.77;;
8480;SDS011;4277;51.354;6.740;2023-09-30T03:47:31;8.73;;;4.60;;
8480;SDS011;4277;51.354;6.740;2023-09-30T03:49:57;11.97;;;5.27;;
8480;SDS011;4277;51.354;6.740;2023-09-30T03:52:24;11.40;;;5.37;;
8480;SDS011;4277;51.354;6.740;2023-09-30T03:54:51;10.63;;;5.17;;
8480;SDS011;4277;51.354;6.740;2023-09-30T03:57:18;11.20;;;5.53;;
8480;SDS011;4277;51.354;6.740;2023-09-30T03:59:44;13.30;;;6.07;;
8480;SDS011;4277;51.354;6.740;2023-09-30T04:02:13;10.17;;;5.33;;
8480;SDS011;4277;51.354;6.740;2023-09-30T04:04:39;11.33;;;5.97;;
8480;SDS011;4277;51.354;6.740;2023-09-30T04:07:05;13.43;;;6.27;;
8480;SDS011;4277;51.354;6.740;2023-09-30T04:09:32;11.40;;;5.77;;
8480;SDS011;4277;51.354;6.740;2023-09-30T04:11:58;15.47;;;6.50;;
8480;SDS011;4277;51.354;6.740;2023-09-30T04:14:25;9.10;;;5.23;;
8480;SDS011;4277;51.354;6.740;2023-09-30T04:16:51;10.97;;;5.83;;
8480;SDS011;4277;51.354;6.740;2023-09-30T04:19:19;11.90;;;5.97;;
8480;SDS011;4277;51.354;6.740;2023-09-30T04:21:45;13.23;;;6.20;;
8480;SDS011;4277;51.354;6.740;2023-09-30T04:24:11;12.03;;;6.23;;
8480;SDS011;4277;51.354;6.740;2023-09-30T04:26:37;9.20;;;5.70;;
8480;SDS011;4277;51.354;6.740;2023-09-30T04:29:04;11.23;;;6.17;;
8480;SDS011;4277;51.354;6.740;2023-09-30T04:31:30;20.73;;;6.73;;
8480;SDS011;4277;51.354;6.740;2023-09-30T04:33:56;13.67;;;6.60;;
8480;SDS011;4277;51.354;6.740;2023-09-30T04:36:23;11.00;;;5.80;;
8480;SDS011;4277;51.354;6.740;2023-09-30T04:38:49;11.57;;;5.90;;
8480;SDS011;4277;51.354;6.740;2023-09-30T04:41:15;13.83;;;6.30;;
8480;SDS011;4277;51.354;6.740;2023-09-30T04:43:41;12.13;;;6.03;;
8480;SDS011;4277;51.354;6.740;2023-09-30T04:46:08;11.20;;;6.17;;
8480;SDS011;4277;51.354;6.740;2023-09-30T04:48:34;11.37;;;5.40;;
8480;SDS011;4277;51.354;6.740;2023-09-30T04:51:00;17.57;;;6.60;;
8480;SDS011;4277;51.354;6.740;2023-09-30T04:53:30;13.93;;;6.40;;
8480;SDS011;4277;51.354;6.740;2023-09-30T04:55:58;9.07;;;5.63;;
8480;SDS011;4277;51.354;6.740;2023-09-30T04:58:24;10.90;;;5.50;;
8480;SDS011;4277;51.354;6.740;2023-09-30T05:00:50;10.23;;;5.20;;
8480;SDS011;4277;51.354;6.740;2023-09-30T05:03:16;8.63;;;5.77;;
8480;SDS011;4277;51.354;6.740;2023-09-30T05:05:44;11.23;;;5.07;;
8480;SDS011;4277;51.354;6.740;2023-09-30T05:08:10;8.70;;;5.07;;
8480;SDS011;4277;51.354;6.740;2023-09-30T05:10:39;11.57;;;5.07;;
8480;SDS011;4277;51.354;6.740;2023-09-30T05:13:05;7.27;;;4.90;;
8480;SDS011;4277;51.354;6.740;2023-09-30T05:15:30;6.50;;;4.70;;
8480;SDS011;4277;51.354;6.740;2023-09-30T05:17:57;9.07;;;4.83;;
8480;SDS011;4277;51.354;6.740;2023-09-30T05:20:23;10.33;;;5.33;;
8480;SDS011;4277;51.354;6.740;2023-09-30T05:22:49;8.10;;;4.90;;
8480;SDS011;4277;51.354;6.740;2023-09-30T05:25:15;10.83;;;5.50;;
8480;SDS011;4277;51.354;6.740;2023-09-30T05:27:42;10.63;;;5.53;;
8480;SDS011;4277;51.354;6.740;2023-09-30T05:30:09;12.10;;;5.83;;
8480;SDS011;4277;51.354;6.740;2023-09-30T05:32:36;9.13;;;5.20;;
8480;SDS011;4277;51.354;6.740;2023-09-30T05:35:04;10.17;;;5.77;;
8480;SDS011;4277;51.354;6.740;2023-09-30T05:37:30;12.23;;;5.93;;
8480;SDS011;4277;51.354;6.740;2023-09-30T05:39:56;9.23;;;5.70;;
8480;SDS011;4277;51.354;6.740;2023-09-30T05:42:22;9.90;;;5.93;;
8480;SDS011;4277;51.354;6.740;2023-09-30T05:44:48;14.97;;;6.43;;
8480;SDS011;4277;51.354;6.740;2023-09-30T05:47:14;9.73;;;5.53;;
8480;SDS011;4277;51.354;6.740;2023-09-30T05:49:41;12.03;;;6.17;;
8480;SDS011;4277;51.354;6.740;2023-09-30T05:52:07;9.07;;;6.03;;
8480;SDS011;4277;51.354;6.740;2023-09-30T05:54:33;10.43;;;6.30;;
8480;SDS011;4277;51.354;6.740;2023-09-30T05:56:59;10.77;;;6.40;;
8480;SDS011;4277;51.354;6.740;2023-09-30T05:59:25;12.13;;;5.73;;
8480;SDS011;4277;51.354;6.740;2023-09-30T06:01:53;12.00;;;5.70;;
8480;SDS011;4277;51.354;6.740;2023-09-30T06:04:19;12.27;;;6.13;;
8480;SDS011;4277;51.354;6.740;2023-09-30T06:06:46;11.50;;;5.87;;
8480;SDS011;4277;51.354;6.740;2023-09-30T06:09:11;12.70;;;5.90;;
8480;SDS011;4277;51.354;6.740;2023-09-30T06:11:38;12.00;;;6.37;;
8480;SDS011;4277;51.354;6.740;2023-09-30T06:14:06;12.17;;;6.27;;
8480;SDS011;4277;51.354;6.740;2023-09-30T06:16:32;12.17;;;6.53;;
8480;SDS011;4277;51.354;6.740;2023-09-30T06:18:59;16.63;;;7.03;;
8480;SDS011;4277;51.354;6.740;2023-09-30T06:21:25;16.70;;;7.03;;
8480;SDS011;4277;51.354;6.740;2023-09-30T06:23:54;13.17;;;7.57;;
8480;SDS011;4277;51.354;6.740;2023-09-30T06:26:20;14.27;;;7.80;;
8480;SDS011;4277;51.354;6.740;2023-09-30T06:28:46;12.33;;;6.23;;
8480;SDS011;4277;51.354;6.740;2023-09-30T06:31:13;16.83;;;7.20;;
8480;SDS011;4277;51.354;6.740;2023-09-30T06:33:40;15.40;;;8.73;;
8480;SDS011;4277;51.354;6.740;2023-09-30T06:36:10;12.70;;;7.90;;
8480;SDS011;4277;51.354;6.740;2023-09-30T06:38:38;15.30;;;8.10;;
8480;SDS011;4277;51.354;6.740;2023-09-30T06:41:04;18.37;;;8.27;;
8480;SDS011;4277;51.354;6.740;2023-09-30T06:43:31;14.57;;;8.60;;
8480;SDS011;4277;51.354;6.740;2023-09-30T06:45:58;16.13;;;8.60;;
8480;SDS011;4277;51.354;6.740;2023-09-30T06:48:24;18.80;;;8.17;;
8480;SDS011;4277;51.354;6.740;2023-09-30T06:50:50;17.87;;;8.10;;
8480;SDS011;4277;51.354;6.740;2023-09-30T06:53:17;21.43;;;8.70;;
8480;SDS011;4277;51.354;6.740;2023-09-30T06:55:44;16.37;;;9.03;;
8480;SDS011;4277;51.354;6.740;2023-09-30T06:58:10;17.13;;;8.20;;
8480;SDS011;4277;51.354;6.740;2023-09-30T07:00:37;17.87;;;9.53;;
8480;SDS011;4277;51.354;6.740;2023-09-30T07:03:03;17.10;;;9.23;;
8480;SDS011;4277;51.354;6.740;2023-09-30T07:05:29;20.13;;;9.87;;
8480;SDS011;4277;51.354;6.740;2023-09-30T07:07:55;19.37;;;10.70;;
8480;SDS011;4277;51.354;6.740;2023-09-30T07:10:21;21.63;;;10.53;;
8480;SDS011;4277;51.354;6.740;2023-09-30T07:12:47;19.13;;;11.27;;
8480;SDS011;4277;51.354;6.740;2023-09-30T07:15:13;21.20;;;11.27;;
8480;SDS011;4277;51.354;6.740;2023-09-30T07:17:40;20.40;;;11.13;;
8480;SDS011;4277;51.354;6.740;2023-09-30T07:20:06;21.10;;;11.70;;
8480;SDS011;4277;51.354;6.740;2023-09-30T07:22:33;19.40;;;12.20;;
8480;SDS011;4277;51.354;6.740;2023-09-30T07:24:59;21.40;;;12.47;;
8480;SDS011;4277;51.354;6.740;2023-09-30T07:27:25;19.47;;;11.87;;
8480;SDS011;4277;51.354;6.740;2023-09-30T07:29:51;20.57;;;11.30;;
8480;SDS011;4277;51.354;6.740;2023-09-30T07:32:17;21.20;;;12.77;;
8480;SDS011;4277;51.354;6.740;2023-09-30T07:34:44;19.73;;;12.60;;
8480;SDS011;4277;51.354;6.740;2023-09-30T07:37:10;22.33;;;12.63;;
8480;SDS011;4277;51.354;6.740;2023-09-30T07:39:36;20.53;;;12.67;;
8480;SDS011;4277;51.354;6.740;2023-09-30T07:42:02;23.13;;;13.20;;
8480;SDS011;4277;51.354;6.740;2023-09-30T07:44:28;22.10;;;12.67;;
8480;SDS011;4277;51.354;6.740;2023-09-30T07:46:54;25.40;;;12.90;;
8480;SDS011;4277;51.354;6.740;2023-09-30T07:49:20;25.20;;;13.43;;
8480;SDS011;4277;51.354;6.740;2023-09-30T07:51:46;20.57;;;13.80;;
8480;SDS011;4277;51.354;6.740;2023-09-30T07:54:12;20.43;;;12.27;;
8480;SDS011;4277;51.354;6.740;2023-09-30T07:56:38;20.40;;;13.67;;
8480;SDS011;4277;51.354;6.740;2023-09-30T07:59:04;19.73;;;12.60;;
8480;SDS011;4277;51.354;6.740;2023-09-30T08:01:30;22.03;;;13.70;;
8480;SDS011;4277;51.354;6.740;2023-09-30T08:03:56;22.00;;;13.17;;
8480;SDS011;4277;51.354;6.740;2023-09-30T08:06:23;19.00;;;12.10;;
8480;SDS011;4277;51.354;6.740;2023-09-30T08:08:49;21.90;;;13.93;;
8480;SDS011;4277;51.354;6.740;2023-09-30T08:11:17;25.53;;;14.33;;
8480;SDS011;4277;51.354;6.740;2023-09-30T08:13:43;22.83;;;14.50;;
8480;SDS011;4277;51.354;6.740;2023-09-30T08:16:09;20.47;;;13.60;;
8480;SDS011;4277;51.354;6.740;2023-09-30T08:18:35;27.00;;;14.63;;
8480;SDS011;4277;51.354;6.740;2023-09-30T08:21:02;25.23;;;13.87;;
8480;SDS011;4277;51.354;6.740;2023-09-30T08:23:27;23.97;;;14.43;;
8480;SDS011;4277;51.354;6.740;2023-09-30T08:25:57;20.40;;;14.67;;
8480;SDS011;4277;51.354;6.740;2023-09-30T08:28:23;23.20;;;15.60;;
8480;SDS011;4277;51.354;6.740;2023-09-30T08:30:49;25.47;;;14.37;;
8480;SDS011;4277;51.354;6.740;2023-09-30T08:33:19;19.47;;;13.03;;
8480;SDS011;4277;51.354;6.740;2023-09-30T08:35:45;21.60;;;14.37;;
8480;SDS011;4277;51.354;6.740;2023-09-30T08:38:11;20.37;;;14.70;;
8480;SDS011;4277;51.354;6.740;2023-09-30T08:40:37;21.40;;;13.67;;
8480;SDS011;4277;51.354;6.740;2023-09-30T08:43:03;23.10;;;15.13;;
8480;SDS011;4277;51.354;6.740;2023-09-30T08:45:30;20.27;;;13.50;;
8480;SDS011;4277;51.354;6.740;2023-09-30T08:47:59;22.27;;;14.67;;
8480;SDS011;4277;51.354;6.740;2023-09-30T08:50:30;24.60;;;15.27;;
8480;SDS011;4277;51.354;6.740;2023-09-30T08:52:56;21.27;;;13.97;;
8480;SDS011;4277;51.354;6.740;2023-09-30T08:55:22;19.07;;;13.90;;
8480;SDS011;4277;51.354;6.740;2023-09-30T08:57:50;20.53;;;14.47;;
8480;SDS011;4277;51.354;6.740;2023-09-30T09:00:16;20.90;;;13.77;;
8480;SDS011;4277;51.354;6.740;2023-09-30T09:02:42;21.33;;;14.57;;
8480;SDS011;4277;51.354;6.740;2023-09-30T09:05:08;19.63;;;14.10;;
8480;SDS011;4277;51.354;6.740;2023-09-30T09:07:35;20.67;;;13.20;;
8480;SDS011;4277;51.354;6.740;2023-09-30T09:10:05;21.47;;;13.17;;
8480;SDS011;4277;51.354;6.740;2023-09-30T09:12:33;20.47;;;14.07;;
8480;SDS011;4277;51.354;6.740;2023-09-30T09:14:59;16.47;;;11.47;;
8480;SDS011;4277;51.354;6.740;2023-09-30T09:17:29;15.83;;;12.83;;
8480;SDS011;4277;51.354;6.740;2023-09-30T09:20:06;19.10;;;13.70;;
8480;SDS011;4277;51.354;6.740;2023-09-30T09:22:41;17.70;;;11.53;;
8480;SDS011;4277;51.354;6.740;2023-09-30T09:25:07;15.77;;;12.03;;
8480;SDS011;4277;51.354;6.740;2023-09-30T09:27:33;17.23;;;11.60;;
8480;SDS011;4277;51.354;6.740;2023-09-30T09:35:21;17.20;;;12.27;;
8480;SDS011;4277;51.354;6.740;2023-09-30T09:37:56;14.90;;;11.30;;
8480;SDS011;4277;51.354;6.740;2023-09-30T09:40:23;17.77;;;11.20;;
8480;SDS011;4277;51.354;6.740;2023-09-30T09:42:49;14.03;;;10.80;;
8480;SDS011;4277;51.354;6.740;2023-09-30T09:45:18;16.27;;;10.33;;
8480;SDS011;4277;51.354;6.740;2023-09-30T09:47:47;14.20;;;10.00;;
8480;SDS011;4277;51.354;6.740;2023-09-30T09:50:14;13.53;;;9.57;;
8480;SDS011;4277;51.354;6.740;2023-09-30T09:52:41;15.13;;;9.90;;
8480;SDS011;4277;51.354;6.740;2023-09-30T09:55:10;15.30;;;9.53;;
8480;SDS011;4277;51.354;6.740;2023-09-30T09:57:37;13.87;;;7.97;;
8480;SDS011;4277;51.354;6.740;2023-09-30T10:00:03;8.97;;;6.40;;
8480;SDS011;4277;51.354;6.740;2023-09-30T10:02:36;10.23;;;6.00;;
8480;SDS011;4277;51.354;6.740;2023-09-30T10:05:04;8.77;;;5.97;;
8480;SDS011;4277;51.354;6.740;2023-09-30T10:07:33;12.40;;;7.13;;
8480;SDS011;4277;51.354;6.740;2023-09-30T10:10:00;12.93;;;7.20;;
8480;SDS011;4277;51.354;6.740;2023-09-30T10:12:27;11.73;;;6.60;;
8480;SDS011;4277;51.354;6.740;2023-09-30T10:14:53;9.40;;;5.25;;
8480;SDS011;4277;51.354;6.740;2023-09-30T10:17:19;9.82;;;4.97;;
8480;SDS011;4277;51.354;6.740;2023-09-30T10:20:04;8.75;;;5.57;;
8480;SDS011;4277;51.354;6.740;2023-09-30T10:22:34;7.97;;;5.25;;
8480;SDS011;4277;51.354;6.740;2023-09-30T10:25:00;11.85;;;5.43;;
8480;SDS011;4277;51.354;6.740;2023-09-30T10:27:30;7.47;;;4.90;;
8480;SDS011;4277;51.354;6.740;2023-09-30T10:35:21;7.78;;;4.28;;
8480;SDS011;4277;51.354;6.740;2023-09-30T10:40:49;9.77;;;4.75;;
8480;SDS011;4277;51.354;6.740;2023-09-30T10:43:34;5.95;;;4.38;;
8480;SDS011;4277;51.354;6.740;2023-09-30T10:46:01;6.65;;;4.10;;
8480;SDS011;4277;51.354;6.740;2023-09-30T10:50:59;9.75;;;4.40;;
8480;SDS011;4277;51.354;6.740;2023-09-30T10:53:26;8.03;;;4.50;;
8480;SDS011;4277;51.354;6.740;2023-09-30T10:55:56;8.60;;;4.05;;
8480;SDS011;4277;51.354;6.740;2023-09-30T11:01:07;6.88;;;3.90;;
8480;SDS011;4277;51.354;6.740;2023-09-30T11:03:33;7.07;;;3.83;;
8480;SDS011;4277;51.354;6.740;2023-09-30T11:05:59;7.55;;;4.40;;
8480;SDS011;4277;51.354;6.740;2023-09-30T11:08:27;5.72;;;3.30;;
8480;SDS011;4277;51.354;6.740;2023-09-30T11:10:57;4.50;;;3.30;;
8480;SDS011;4277;51.354;6.740;2023-09-30T11:13:25;6.18;;;3.15;;
8480;SDS011;4277;51.354;6.740;2023-09-30T11:16:00;8.85;;;3.55;;
8480;SDS011;4277;51.354;6.740;2023-09-30T11:18:27;9.23;;;3.58;;
8480;SDS011;4277;51.354;6.740;2023-09-30T11:21:02;7.10;;;3.30;;
8480;SDS011;4277;51.354;6.740;2023-09-30T11:23:29;5.70;;;2.88;;
8480;SDS011;4277;51.354;6.740;2023-09-30T11:25:55;6.13;;;3.20;;
8480;SDS011;4277;51.354;6.740;2023-09-30T11:28:22;7.22;;;3.20;;
8480;SDS011;4277;51.354;6.740;2023-09-30T11:30:58;4.70;;;2.92;;
8480;SDS011;4277;51.354;6.740;2023-09-30T11:33:24;6.70;;;3.38;;
8480;SDS011;4277;51.354;6.740;2023-09-30T11:36:03;5.57;;;3.10;;
8480;SDS011;4277;51.354;6.740;2023-09-30T11:38:30;7.10;;;2.90;;
8480;SDS011;4277;51.354;6.740;2023-09-30T11:41:00;8.13;;;3.03;;
8480;SDS011;4277;51.354;6.740;2023-09-30T11:43:31;7.50;;;3.60;;
8480;SDS011;4277;51.354;6.740;2023-09-30T11:46:07;6.80;;;3.03;;
8480;SDS011;4277;51.354;6.740;2023-09-30T11:48:33;8.68;;;2.88;;
8480;SDS011;4277;51.354;6.740;2023-09-30T11:51:00;5.28;;;2.70;;
8480;SDS011;4277;51.354;6.740;2023-09-30T11:53:31;6.93;;;3.00;;
8480;SDS011;4277;51.354;6.740;2023-09-30T11:56:00;7.28;;;3.10;;
8480;SDS011;4277;51.354;6.740;2023-09-30T11:58:27;5.55;;;3.00;;
8480;SDS011;4277;51.354;6.740;2023-09-30T12:00:54;6.60;;;3.15;;
8480;SDS011;4277;51.354;6.740;2023-09-30T12:03:22;5.35;;;3.10;;
8480;SDS011;4277;51.354;6.740;2023-09-30T12:05:48;4.70;;;2.67;;
8480;SDS011;4277;51.354;6.740;2023-09-30T12:08:14;5.75;;;2.58;;
8480;SDS011;4277;51.354;6.740;2023-09-30T12:10:40;5.40;;;2.60;;
8480;SDS011;4277;51.354;6.740;2023-09-30T12:13:06;4.85;;;2.28;;
8480;SDS011;4277;51.354;6.740;2023-09-30T12:15:32;5.65;;;2.50;;
8480;SDS011;4277;51.354;6.740;2023-09-30T12:17:58;4.82;;;2.28;;
8480;SDS011;4277;51.354;6.740;2023-09-30T12:20:24;5.35;;;2.35;;
8480;SDS011;4277;51.354;6.740;2023-09-30T12:22:50;6.50;;;2.33;;
8480;SDS011;4277;51.354;6.740;2023-09-30T12:25:18;5.90;;;2.95;;
8480;SDS011;4277;51.354;6.740;2023-09-30T12:27:46;5.13;;;2.65;;
8480;SDS011;4277;51.354;6.740;2023-09-30T12:30:13;8.77;;;3.08;;
8480;SDS011;4277;51.354;6.740;2023-09-30T12:32:39;6.47;;;2.80;;
8480;SDS011;4277;51.354;6.740;2023-09-30T12:35:05;6.72;;;2.60;;
8480;SDS011;4277;51.354;6.740;2023-09-30T12:37:31;6.95;;;3.47;;
8480;SDS011;4277;51.354;6.740;2023-09-30T12:39:58;8.20;;;3.30;;
8480;SDS011;4277;51.354;6.740;2023-09-30T12:42:24;5.70;;;2.90;;
8480;SDS011;4277;51.354;6.740;2023-09-30T12:44:50;5.13;;;3.10;;
8480;SDS011;4277;51.354;6.740;2023-09-30T12:47:16;5.65;;;2.95;;
8480;SDS011;4277;51.354;6.740;2023-09-30T12:49:41;5.95;;;2.70;;
8480;SDS011;4277;51.354;6.740;2023-09-30T12:52:07;4.78;;;2.78;;
8480;SDS011;4277;51.354;6.740;2023-09-30T12:54:33;5.97;;;3.00;;
8480;SDS011;4277;51.354;6.740;2023-09-30T12:56:59;7.57;;;3.13;;
8480;SDS011;4277;51.354;6.740;2023-09-30T12:59:26;6.95;;;2.97;;
8480;SDS011;4277;51.354;6.740;2023-09-30T13:01:52;4.35;;;2.78;;
8480;SDS011;4277;51.354;6.740;2023-09-30T13:04:18;7.15;;;2.88;;
8480;SDS011;4277;51.354;6.740;2023-09-30T13:06:44;4.72;;;2.72;;
8480;SDS011;4277;51.354;6.740;2023-09-30T13:09:10;5.65;;;2.80;;
8480;SDS011;4277;51.354;6.740;2023-09-30T13:11:37;6.18;;;2.60;;
8480;SDS011;4277;51.354;6.740;2023-09-30T13:14:03;6.97;;;2.70;;
8480;SDS011;4277;51.354;6.740;2023-09-30T13:16:29;4.03;;;2.47;;
8480;SDS011;4277;51.354;6.740;2023-09-30T13:18:58;4.28;;;2.38;;
8480;SDS011;4277;51.354;6.740;2023-09-30T13:21:24;5.45;;;2.38;;
8480;SDS011;4277;51.354;6.740;2023-09-30T13:23:50;5.53;;;2.75;;
8480;SDS011;4277;51.354;6.740;2023-09-30T13:26:17;4.57;;;2.50;;
8480;SDS011;4277;51.354;6.740;2023-09-30T13:28:44;4.45;;;2.55;;
8480;SDS011;4277;51.354;6.740;2023-09-30T13:31:10;6.35;;;3.03;;
8480;SDS011;4277;51.354;6.740;2023-09-30T13:33:36;6.05;;;2.80;;
8480;SDS011;4277;51.354;6.740;2023-09-30T13:36:03;4.68;;;2.40;;
8480;SDS011;4277;51.354;6.740;2023-09-30T13:38:30;4.30;;;2.50;;
8480;SDS011;4277;51.354;6.740;2023-09-30T13:40:56;6.90;;;2.97;;
8480;SDS011;4277;51.354;6.740;2023-09-30T13:43:22;5.68;;;2.70;;
8480;SDS011;4277;51.354;6.740;2023-09-30T13:45:48;6.47;;;2.78;;
8480;SDS011;4277;51.354;6.740;2023-09-30T13:48:14;4.75;;;2.67;;
8480;SDS011;4277;51.354;6.740;2023-09-30T13:50:40;4.30;;;2.35;;
8480;SDS011;4277;51.354;6.740;2023-09-30T13:53:06;5.72;;;2.60;;
8480;SDS011;4277;51.354;6.740;2023-09-30T13:55:32;4.95;;;2.60;;
8480;SDS011;4277;51.354;6.740;2023-09-30T13:57:58;4.72;;;2.45;;
8480;SDS011;4277;51.354;6.740;2023-09-30T14:00:24;3.90;;;2.38;;
8480;SDS011;4277;51.354;6.740;2023-09-30T14:02:51;4.97;;;2.72;;
8480;SDS011;4277;51.354;6.740;2023-09-30T14:05:17;5.93;;;2.47;;
8480;SDS011;4277;51.354;6.740;2023-09-30T14:07:43;4.18;;;2.30;;
8480;SDS011;4277;51.354;6.740;2023-09-30T14:10:09;6.90;;;2.45;;
8480;SDS011;4277;51.354;6.740;2023-09-30T14:12:35;4.10;;;2.40;;
8480;SDS011;4277;51.354;6.740;2023-09-30T14:15:02;7.22;;;2.67;;
8480;SDS011;4277;51.354;6.740;2023-09-30T14:17:30;3.63;;;2.42;;
8480;SDS011;4277;51.354;6.740;2023-09-30T14:19:56;6.55;;;2.58;;
8480;SDS011;4277;51.354;6.740;2023-09-30T14:22:22;3.78;;;2.40;;
8480;SDS011;4277;51.354;6.740;2023-09-30T14:24:48;3.75;;;2.20;;
8480;SDS011;4277;51.354;6.740;2023-09-30T14:27:14;4.75;;;2.40;;
8480;SDS011;4277;51.354;6.740;2023-09-30T14:29:40;3.40;;;2.50;;
8480;SDS011;4277;51.354;6.740;2023-09-30T14:32:08;5.18;;;2.50;;
8480;SDS011;4277;51.354;6.740;2023-09-30T14:34:34;5.43;;;2.70;;
8480;SDS011;4277;51.354;6.740;2023-09-30T14:37:00;5.28;;;3.22;;
8480;SDS011;4277;51.354;6.740;2023-09-30T14:39:26;4.45;;;2.63;;
8480;SDS011;4277;51.354;6.740;2023-09-30T14:41:52;4.63;;;2.70;;
8480;SDS011;4277;51.354;6.740;2023-09-30T14:44:18;5.47;;;3.13;;
8480;SDS011;4277;51.354;6.740;2023-09-30T14:46:46;5.38;;;3.33;;
8480;SDS011;4277;51.354;6.740;2023-09-30T14:49:13;5.40;;;3.08;;
8480;SDS011;4277;51.354;6.740;2023-09-30T14:51:39;5.43;;;3.20;;
8480;SDS011;4277;51.354;6.740;2023-09-30T14:54:05;4.00;;;2.90;;
8480;SDS011;4277;51.354;6.740;2023-09-30T14:56:31;3.88;;;2.50;;
8480;SDS011;4277;51.354;6.740;2023-09-30T14:58:57;4.57;;;2.58;;
8480;SDS011;4277;51.354;6.740;2023-09-30T15:01:24;4.25;;;2.75;;
8480;SDS011;4277;51.354;6.740;2023-09-30T15:03:51;5.57;;;2.78;;
8480;SDS011;4277;51.354;6.740;2023-09-30T15:06:17;4.53;;;2.63;;
8480;SDS011;4277;51.354;6.740;2023-09-30T15:08:43;4.10;;;2.80;;
8480;SDS011;4277;51.354;6.740;2023-09-30T15:11:12;5.00;;;2.92;;
8480;SDS011;4277;51.354;6.740;2023-09-30T15:13:40;4.10;;;2.72;;
8480;SDS011;4277;51.354;6.740;2023-09-30T15:16:13;5.60;;;3.03;;
8480;SDS011;4277;51.354;6.740;2023-09-30T15:18:39;3.53;;;2.78;;
8480;SDS011;4277;51.354;6.740;2023-09-30T15:21:05;4.35;;;3.03;;
8480;SDS011;4277;51.354;6.740;2023-09-30T15:23:31;4.30;;;2.72;;
8480;SDS011;4277;51.354;6.740;2023-09-30T15:25:57;4.15;;;2.70;;